createdAt,value
2022-11-16T00:02:21.401Z,6.04
2022-11-16T00:07:27.632Z,5.88
2022-11-16T00:12:33.598Z,6.48
2022-11-16T00:17:39.838Z,5.75
2022-11-16T00:22:45.892Z,5.92
2022-11-16T00:27:53.140Z,5.41
2022-11-16T00:32:59.253Z,5.57
2022-11-16T00:38:05.454Z,5.82
2022-11-16T00:43:12.476Z,5.35
2022-11-16T00:48:18.635Z,5.41
2022-11-16T00:53:24.760Z,5.46
2022-11-16T00:58:31.329Z,5.68
2022-11-16T01:03:36.569Z,5.93
2022-11-16T01:08:43.306Z,5.73
2022-11-16T01:13:50.216Z,5.93
2022-11-16T01:18:56.501Z,5.92
2022-11-16T01:24:02.585Z,5.80
2022-11-16T01:29:09.479Z,5.67
2022-11-16T01:34:15.641Z,5.96
2022-11-16T01:39:21.810Z,5.77
2022-11-16T01:44:27.871Z,5.69
2022-11-16T01:49:34.049Z,6.37
2022-11-16T01:54:40.126Z,6.14
2022-11-16T01:59:46.315Z,5.85
2022-11-16T02:04:52.742Z,5.98
2022-11-16T02:09:58.913Z,5.98
2022-11-16T02:15:04.941Z,5.95
2022-11-16T02:20:11.185Z,6.49
2022-11-16T02:25:17.286Z,5.82
2022-11-16T02:30:23.444Z,5.65
2022-11-16T02:35:29.488Z,5.73
2022-11-16T02:40:35.657Z,5.60
2022-11-16T02:45:41.718Z,5.89
2022-11-16T02:50:48.060Z,5.63
2022-11-16T02:55:54.139Z,6.17
2022-11-16T03:01:00.356Z,6.43
2022-11-16T03:06:06.378Z,6.34
2022-11-16T03:11:12.543Z,6.40
2022-11-16T03:16:18.587Z,6.96
2022-11-16T03:21:24.747Z,6.47
2022-11-16T03:26:30.788Z,6.50
2022-11-16T03:31:37.095Z,6.64
2022-11-16T03:36:43.251Z,6.61
2022-11-16T03:41:49.839Z,6.21
2022-11-16T03:46:55.904Z,6.64
2022-11-16T03:52:02.141Z,6.32
2022-11-16T03:57:08.289Z,6.62
2022-11-16T04:02:14.497Z,6.98
2022-11-16T04:07:20.715Z,7.18
2022-11-16T04:12:26.746Z,7.16
2022-11-16T04:17:32.805Z,7.33
2022-11-16T04:22:39.397Z,7.11
2022-11-16T04:27:45.474Z,7.06
2022-11-16T04:32:51.756Z,7.10
2022-11-16T04:37:58.163Z,7.53
2022-11-16T04:43:04.415Z,8.18
2022-11-16T04:48:10.488Z,8.22
2022-11-16T04:53:16.750Z,8.71
2022-11-16T04:58:22.827Z,8.77
2022-11-16T05:03:29.149Z,8.60
2022-11-16T05:08:35.640Z,9.49
2022-11-16T05:13:41.940Z,9.58
2022-11-16T05:18:48.020Z,10.06
2022-11-16T05:23:54.238Z,10.05
2022-11-16T05:29:00.329Z,10.36
2022-11-16T05:34:06.462Z,11.16
2022-11-16T05:39:12.892Z,11.38
2022-11-16T05:44:19.063Z,11.59
2022-11-16T05:49:25.237Z,11.44
2022-11-16T05:54:31.411Z,12.52
2022-11-16T05:59:37.483Z,12.30
2022-11-16T06:04:43.674Z,13.43
2022-11-16T06:09:49.771Z,12.51
2022-11-16T06:14:55.928Z,12.73
2022-11-16T06:20:02.016Z,13.40
2022-11-16T06:25:08.636Z,13.30
2022-11-16T06:30:14.703Z,13.41
2022-11-16T06:35:21.151Z,14.04
2022-11-16T06:40:27.551Z,13.15
2022-11-16T06:45:33.894Z,13.65
2022-11-16T06:50:39.968Z,14.06
2022-11-16T06:55:46.150Z,13.51
2022-11-16T07:00:52.226Z,14.14
2022-11-16T07:05:58.396Z,14.45
2022-11-16T07:11:04.590Z,14.34
2022-11-16T07:16:10.860Z,14.86
2022-11-16T07:21:16.940Z,13.99
2022-11-16T07:26:23.112Z,13.69
2022-11-16T07:31:29.505Z,14.31
2022-11-16T07:36:35.685Z,14.69
2022-11-16T07:41:41.744Z,15.18
2022-11-16T07:46:49.238Z,14.83
2022-11-16T07:51:54.498Z,14.92
2022-11-16T07:57:01.265Z,15.16
2022-11-16T08:02:08.868Z,15.48
2022-11-16T08:07:15.455Z,15.57
2022-11-16T08:12:21.797Z,15.71
2022-11-16T08:17:28.389Z,15.59
2022-11-16T08:22:34.862Z,16.30
2022-11-16T08:27:41.608Z,16.12
2022-11-16T08:32:48.142Z,15.37
2022-11-16T08:37:54.855Z,15.86
2022-11-16T08:43:02.038Z,16.07
2022-11-16T08:48:09.402Z,16.29
2022-11-16T08:53:15.891Z,16.41
2022-11-16T08:58:22.447Z,15.73
2022-11-16T09:03:29.170Z,16.17
2022-11-16T09:08:36.021Z,16.28
2022-11-16T09:13:42.393Z,16.19
2022-11-16T09:18:49.099Z,16.73
2022-11-16T09:24:22.878Z,17.28
2022-11-16T09:29:29.085Z,16.29
2022-11-16T09:34:35.129Z,14.67
2022-11-16T09:39:41.581Z,15.23
2022-11-16T09:44:47.643Z,15.15
2022-11-16T09:49:58.199Z,15.02
2022-11-16T09:54:59.389Z,14.54
2022-11-16T10:00:05.500Z,15.06
2022-11-16T10:05:12.295Z,14.85
2022-11-16T10:10:18.458Z,15.09
2022-11-16T10:15:24.521Z,14.97
2022-11-16T10:20:31.321Z,14.54
2022-11-16T10:25:36.276Z,14.54
2022-11-16T10:30:42.443Z,14.49
2022-11-16T10:35:48.514Z,14.12
2022-11-16T10:40:54.695Z,14.53
2022-11-16T10:46:00.767Z,13.97
2022-11-16T10:51:07.290Z,14.52
2022-11-16T10:56:13.371Z,14.80
2022-11-16T11:01:19.695Z,14.27
2022-11-16T11:06:25.750Z,14.60
2022-11-16T11:11:31.901Z,14.80
2022-11-16T11:16:37.957Z,14.72
2022-11-16T11:21:44.087Z,14.66
2022-11-16T11:26:50.174Z,14.49
2022-11-16T11:31:56.343Z,14.43
2022-11-16T11:37:02.432Z,14.35
2022-11-16T11:42:08.613Z,14.32
2022-11-16T11:47:56.357Z,14.97
2022-11-16T11:52:20.738Z,14.19
2022-11-16T11:57:26.903Z,14.06
2022-11-16T12:02:33.176Z,14.23
2022-11-16T12:07:39.322Z,13.83
2022-11-16T12:12:45.346Z,14.03
2022-11-16T12:17:51.427Z,13.35
2022-11-16T12:23:02.579Z,13.01
2022-11-16T12:28:03.241Z,13.03
2022-11-16T12:33:09.386Z,13.38
2022-11-16T12:38:15.438Z,14.21
2022-11-16T12:43:21.628Z,14.23
2022-11-16T12:48:27.687Z,15.70
2022-11-16T12:53:34.145Z,15.31
2022-11-16T12:58:39.440Z,16.68
2022-11-16T13:03:45.556Z,17.12
2022-11-16T13:08:51.639Z,17.01
2022-11-16T13:13:58.049Z,16.34
2022-11-16T13:19:03.878Z,16.42
2022-11-16T13:24:10.029Z,16.89
2022-11-16T13:29:16.089Z,17.34
2022-11-16T13:34:22.351Z,16.79
2022-11-16T13:39:28.412Z,17.95
2022-11-16T13:44:34.555Z,17.73
2022-11-16T13:49:40.594Z,17.70
2022-11-16T13:54:47.137Z,18.16
2022-11-16T13:59:52.966Z,18.04
2022-11-16T14:04:59.567Z,17.65
2022-11-16T14:10:05.637Z,17.80
2022-11-16T14:15:11.908Z,17.69
2022-11-16T14:20:22.148Z,17.77
2022-11-16T14:25:23.605Z,17.15
2022-11-16T14:30:29.657Z,16.38
2022-11-16T14:35:35.785Z,16.45
2022-11-16T14:40:41.841Z,15.44
2022-11-16T14:45:47.970Z,15.06
2022-11-16T14:50:54.034Z,14.39
2022-11-16T14:56:00.364Z,14.73
2022-11-16T15:01:06.425Z,14.32
2022-11-16T15:06:12.695Z,14.44
2022-11-16T15:11:18.761Z,14.97
2022-11-16T15:16:24.916Z,15.27
2022-11-16T15:21:30.973Z,14.97
2022-11-16T15:26:37.108Z,14.79
2022-11-16T15:31:43.177Z,14.86
2022-11-16T15:36:49.459Z,14.91
2022-11-16T15:42:02.153Z,15.25
2022-11-16T15:48:08.902Z,17.73
2022-11-16T15:53:15.001Z,14.96
2022-11-16T15:58:21.317Z,15.44
2022-11-16T16:03:29.827Z,14.71
2022-11-16T16:08:33.412Z,13.85
2022-11-16T16:13:39.520Z,13.93
2022-11-16T16:18:45.649Z,14.23
2022-11-16T16:23:51.729Z,13.71
2022-11-16T16:28:58.336Z,13.20
2022-11-16T16:34:04.460Z,12.65
2022-11-16T16:39:10.669Z,12.08
2022-11-16T16:44:16.736Z,12.40
2022-11-16T16:49:22.960Z,11.56
2022-11-16T16:54:29.129Z,11.84
2022-11-16T16:59:35.417Z,11.44
2022-11-16T17:04:41.561Z,10.91
2022-11-16T17:09:47.719Z,10.48
2022-11-16T17:14:53.809Z,10.80
2022-11-16T17:20:00.415Z,11.01
2022-11-16T17:25:06.476Z,11.33
2022-11-16T17:30:12.653Z,11.27
2022-11-16T17:35:18.778Z,11.25
2022-11-16T17:40:25.083Z,11.22
2022-11-16T17:45:31.235Z,11.15
2022-11-16T17:50:37.427Z,11.90
2022-11-16T17:55:44.259Z,12.19
2022-11-16T18:00:50.546Z,11.74
2022-11-16T18:05:56.979Z,12.31
2022-11-16T18:11:03.267Z,12.22
2022-11-16T18:16:09.356Z,12.75
2022-11-16T18:21:20.375Z,11.58
2022-11-16T18:26:22.054Z,11.80
2022-11-16T18:31:28.308Z,11.49
2022-11-16T18:36:34.369Z,11.43
2022-11-16T18:41:40.591Z,11.38
2022-11-16T18:46:46.709Z,11.45
2022-11-16T18:51:53.023Z,11.06
2022-11-16T18:56:59.412Z,10.57
2022-11-16T19:02:05.632Z,9.94
2022-11-16T19:07:12.558Z,10.47
2022-11-16T19:12:18.709Z,9.93
2022-11-16T19:17:25.101Z,10.24
2022-11-16T19:22:31.326Z,9.78
2022-11-16T19:27:37.416Z,9.46
2022-11-16T19:32:43.640Z,10.31
2022-11-16T19:37:49.755Z,9.42
2022-11-16T19:42:56.321Z,8.76
2022-11-16T19:48:02.441Z,8.38
2022-11-16T19:53:08.649Z,7.89
2022-11-16T19:58:14.831Z,7.91
2022-11-16T20:03:21.032Z,10.10
2022-11-16T20:08:27.178Z,10.21
2022-11-16T20:13:34.004Z,8.09
2022-11-16T20:18:39.838Z,7.29
2022-11-16T20:23:46.062Z,8.14
2022-11-16T20:28:52.252Z,7.55
2022-11-16T20:33:58.411Z,7.24
2022-11-16T20:39:04.566Z,7.44
2022-11-16T20:44:15.020Z,6.94
2022-11-16T20:49:17.328Z,6.94
2022-11-16T20:54:23.550Z,7.31
2022-11-16T20:59:29.691Z,6.32
2022-11-16T21:04:36.337Z,5.61
2022-11-16T21:09:42.728Z,5.78
2022-11-16T21:14:48.970Z,6.59
2022-11-16T21:20:25.423Z,5.55
2022-11-16T21:25:01.013Z,5.17
2022-11-16T21:30:07.074Z,5.43
2022-11-16T21:35:13.288Z,5.21
2022-11-16T21:40:19.435Z,4.70
2022-11-16T21:45:25.650Z,4.86
2022-11-16T21:50:32.454Z,4.46
2022-11-16T21:55:37.501Z,4.54
2022-11-16T22:00:43.662Z,4.66
2022-11-16T22:05:49.862Z,5.30
2022-11-16T22:10:55.916Z,4.71
2022-11-16T22:16:02.397Z,4.91
2022-11-16T22:21:08.473Z,5.14
2022-11-16T22:26:14.765Z,5.07
2022-11-16T22:31:36.910Z,5.13
2022-11-16T22:36:43.080Z,5.08
2022-11-16T22:41:49.179Z,4.87
2022-11-16T22:46:55.505Z,5.04
2022-11-16T22:52:01.599Z,5.75
2022-11-16T22:57:07.837Z,5.53
2022-11-16T23:02:13.917Z,5.50
2022-11-16T23:07:20.263Z,4.99
2022-11-16T23:12:26.672Z,6.03
2022-11-16T23:17:32.975Z,5.25
2022-11-16T23:22:39.036Z,5.53
2022-11-16T23:27:45.282Z,4.93
2022-11-16T23:32:51.360Z,5.49
2022-11-16T23:37:57.512Z,5.42
2022-11-16T23:43:04.464Z,5.14
2022-11-16T23:48:10.648Z,5.04
2022-11-16T23:53:16.750Z,5.05
2022-11-16T23:58:23.058Z,4.98
